Elbert, Colorado
Current Conditions -  °F | °C
As of 9:54 PM on Sunday 21 Dec 2014 (Local Time) from KMNH Reporting Station
Light Snow Light Snow  
Wind Chill: 26°   Ceiling: 200
Heat Index: 32°   Visibility: 1.7mi
Dew Point: 32°   Wind: 6mph
Humidity: 100%   Direction: 330°NNW
Pressure: 29.64"   Gusts: NA
Location:  39.22°N, 104.54°W
Report Text: KMNH 220454Z AUTO 33005KT 1 3/4SM -SN OVC002 00/00 A2964 RMK AO2 P0002
Loading
Personal Weather Stations






























Interactive Weather Map New forecast layout! Learn more

10-Day Weather Forecast

Advertisements
Track Severe Weather on mobile